Time;durP1;ratioP1;P1;durP2;ratioP2;P2;SDS_P1;SDS_P2;PMS_P1;PMS_P2;Temp;Humidity;BMP_temperature;BMP_pressure;BME280_temperature;BME280_humidity;BME280_pressure;Samples;Min_cycle;Max_cycle;Signal;HPM_P1;HPM_P2
2021/01/08 00:04:35;;;;;;;9.63;6.75;;;;;;;2.36;77.66;99784.00;10401363;28;20061;-72
2021/01/08 00:09:36;;;;;;;9.30;7.18;;;;;;;2.35;77.54;99783.16;10376890;28;20100;-71
2021/01/08 00:14:37;;;;;;;8.50;6.47;;;;;;;2.44;77.67;99766.06;10370945;28;20052;-74
2021/01/08 00:19:39;;;;;;;8.38;6.45;;;;;;;2.55;77.23;99763.72;10374112;28;20512;-71
2021/01/08 00:24:40;;;;;;;7.95;6.50;;;;;;;2.57;76.78;99771.50;10372219;28;20474;-71
2021/01/08 00:29:41;;;;;;;10.85;7.35;;;;;;;2.45;77.32;99760.72;10385785;28;20053;-72
2021/01/08 00:34:43;;;;;;;10.02;8.23;;;;;;;2.37;77.12;99764.69;10370537;28;20100;-72
2021/01/08 00:39:44;;;;;;;10.88;7.00;;;;;;;2.44;77.50;99761.66;10372269;28;20049;-73
2021/01/08 00:44:46;;;;;;;11.10;7.15;;;;;;;2.52;76.80;99752.50;10366059;28;20061;-71
2021/01/08 00:49:47;;;;;;;7.95;6.50;;;;;;;2.59;76.64;99756.50;10378587;28;20053;-72
2021/01/08 00:54:50;;;;;;;10.50;6.70;;;;;;;2.46;76.23;99754.56;10376922;28;20139;-72
2021/01/08 00:59:52;;;;;;;7.05;5.43;;;;;;;2.41;75.70;99753.94;10368953;28;20061;-75
2021/01/08 01:04:54;;;;;;;8.65;6.43;;;;;;;2.26;76.33;99736.38;10367363;28;20124;-73
2021/01/08 01:09:55;;;;;;;9.63;6.38;;;;;;;2.23;76.50;99768.06;10343407;28;20115;-73
2021/01/08 01:14:56;;;;;;;7.38;6.32;;;;;;;2.21;76.49;99759.44;10339904;28;20428;-72
2021/01/08 01:19:57;;;;;;;10.43;7.13;;;;;;;2.25;76.77;99763.56;10360289;28;20589;-71
2021/01/08 01:24:59;;;;;;;10.18;6.22;;;;;;;2.25;76.59;99766.19;10379253;28;20060;-72
2021/01/08 01:30:00;;;;;;;8.45;6.47;;;;;;;2.26;76.83;99760.03;10385009;28;20050;-71
2021/01/08 01:35:01;;;;;;;10.05;6.43;;;;;;;2.06;77.30;99761.94;10378223;28;20127;-74
2021/01/08 01:40:03;;;;;;;8.93;6.43;;;;;;;2.23;77.16;99773.31;10387996;28;20053;-71
2021/01/08 01:45:05;;;;;;;10.50;7.57;;;;;;;2.23;77.42;99778.59;10384511;28;20053;-71
2021/01/08 01:50:07;;;;;;;9.40;7.13;;;;;;;2.10;77.77;99767.88;10382442;28;20084;-72
2021/01/08 01:55:12;;;;;;;10.10;6.97;;;;;;;2.09;77.84;99774.91;10384145;28;20072;-72
2021/01/08 02:00:13;;;;;;;11.23;7.27;;;;;;;2.17;77.45;99778.91;10410334;28;20057;-72
2021/01/08 02:05:16;;;;;;;8.25;6.90;;;;;;;2.15;78.03;99791.25;10399647;28;20108;-71
2021/01/08 02:10:19;;;;;;;9.30;6.95;;;;;;;2.09;78.76;99779.31;10379641;28;20049;-72
2021/01/08 02:15:20;;;;;;;10.60;7.93;;;;;;;1.94;78.82;99779.19;10387736;28;20099;-72
2021/01/08 02:20:23;;;;;;;9.50;6.93;;;;;;;1.87;79.85;99776.97;10381667;28;20661;-72
2021/01/08 02:25:27;;;;;;;10.02;7.65;;;;;;;1.87;80.12;99783.06;10383033;28;20048;-71
2021/01/08 02:30:29;;;;;;;12.05;7.95;;;;;;;1.98;79.79;99771.16;10419423;28;20060;-71
2021/01/08 02:35:31;;;;;;;10.20;7.65;;;;;;;1.91;80.25;99773.25;10383061;28;20128;-71
2021/01/08 02:40:33;;;;;;;11.38;8.15;;;;;;;1.91;80.71;99775.88;10380024;28;20621;-72
2021/01/08 02:45:34;;;;;;;11.23;8.40;;;;;;;1.96;80.38;99767.78;10378918;28;20096;-71
2021/01/08 02:50:35;;;;;;;11.10;8.52;;;;;;;1.99;80.97;99778.94;10385362;28;20092;-70
2021/01/08 02:55:41;;;;;;;10.27;7.70;;;;;;;1.95;80.81;99772.16;10381045;28;20061;-70
2021/01/08 03:00:43;;;;;;;10.07;8.65;;;;;;;1.84;81.21;99779.75;10375769;28;20050;-70
2021/01/08 03:05:44;;;;;;;10.88;8.02;;;;;;;1.89;81.51;99769.84;10372347;28;20081;-71
2021/01/08 03:10:45;;;;;;;9.95;7.93;;;;;;;1.84;81.68;99770.09;10374706;28;20057;-72
2021/01/08 03:15:46;;;;;;;10.45;7.65;;;;;;;1.80;81.95;99765.09;10383877;28;20445;-72
2021/01/08 03:20:48;;;;;;;11.50;8.57;;;;;;;1.76;82.34;99760.00;10377304;28;20528;-71
2021/01/08 03:25:49;;;;;;;12.18;9.60;;;;;;;1.91;82.17;99768.84;10378975;28;20064;-71
2021/01/08 03:30:50;;;;;;;12.82;9.43;;;;;;;1.74;82.39;99751.38;10378480;28;20049;-72
2021/01/08 03:35:52;;;;;;;11.23;9.32;;;;;;;1.80;82.26;99759.84;10377932;28;20115;-72
2021/01/08 03:40:53;;;;;;;12.52;9.93;;;;;;;1.74;82.92;99764.50;10374863;28;20096;-71
2021/01/08 03:45:55;;;;;;;11.45;9.73;;;;;;;1.80;82.60;99754.59;10377292;28;20599;-73
2021/01/08 03:50:56;;;;;;;13.02;9.77;;;;;;;1.81;82.75;99756.28;10372667;28;20196;-71
2021/01/08 03:55:57;;;;;;;11.90;9.55;;;;;;;1.67;83.06;99751.78;10377487;28;20265;-73
2021/01/08 04:00:59;;;;;;;13.98;9.98;;;;;;;1.71;83.35;99756.78;10381359;28;20061;-70
2021/01/08 04:06:00;;;;;;;11.73;9.23;;;;;;;1.62;84.04;99751.97;10408031;28;20045;-74
2021/01/08 04:11:01;;;;;;;11.90;10.30;;;;;;;1.68;84.03;99751.69;10402294;28;21379;-71
2021/01/08 04:16:03;;;;;;;13.43;9.88;;;;;;;1.77;83.44;99739.84;10377066;28;20069;-73
2021/01/08 04:21:04;;;;;;;14.05;11.02;;;;;;;1.80;83.46;99733.59;10379397;28;20049;-71
2021/01/08 04:26:07;;;;;;;11.25;9.05;;;;;;;1.82;84.10;99740.47;10370541;28;20170;-71
2021/01/08 04:31:09;;;;;;;13.40;10.13;;;;;;;1.87;83.37;99730.56;10371978;28;20055;-71
2021/01/08 04:36:11;;;;;;;12.30;9.80;;;;;;;1.80;83.47;99736.22;10381719;28;20120;-71
2021/01/08 04:41:13;;;;;;;11.10;9.20;;;;;;;1.93;83.42;99730.22;10380067;28;20575;-72
2021/01/08 04:46:18;;;;;;;11.52;9.88;;;;;;;1.95;83.06;99743.28;10386266;28;20052;-71
2021/01/08 04:51:21;;;;;;;11.98;9.57;;;;;;;1.81;83.69;99727.44;10394151;28;20068;-72
2021/01/08 04:56:26;;;;;;;10.90;8.32;;;;;;;1.94;83.29;99737.19;10411673;28;20049;-72
2021/01/08 05:01:29;;;;;;;10.57;7.07;;;;;;;1.91;83.71;99736.50;10352535;28;20057;-71
2021/01/08 05:06:31;;;;;;;10.77;8.57;;;;;;;1.91;83.50;99733.88;10350021;28;20072;-71
2021/01/08 05:11:33;;;;;;;9.02;7.95;;;;;;;1.88;83.88;99734.06;10398503;28;20081;-71
2021/01/08 05:16:34;;;;;;;10.82;8.68;;;;;;;1.89;84.12;99741.84;10391449;28;20050;-71
2021/01/08 05:21:36;;;;;;;10.80;8.43;;;;;;;1.65;85.50;99740.47;10393717;28;20570;-72
2021/01/08 05:26:38;;;;;;;11.45;9.48;;;;;;;1.67;85.69;99739.50;10364166;28;20504;-73
2021/01/08 05:31:39;;;;;;;12.38;9.88;;;;;;;1.71;85.41;99734.91;10387515;28;20095;-72
2021/01/08 05:36:44;;;;;;;9.48;8.18;;;;;;;1.84;85.39;99740.38;10381081;28;20046;-74
2021/01/08 05:41:45;;;;;;;11.90;8.68;;;;;;;1.88;85.42;99736.69;10384819;28;20130;-71
2021/01/08 05:46:47;;;;;;;10.15;8.95;;;;;;;1.93;84.86;99739.91;10385516;28;20187;-71
2021/01/08 05:51:49;;;;;;;12.05;8.95;;;;;;;1.92;85.04;99738.19;10351205;28;20237;-70
2021/01/08 05:56:50;;;;;;;11.00;9.10;;;;;;;1.81;84.64;99711.69;10362503;23;20076;-66
2021/01/08 06:01:56;;;;;;;11.77;9.68;;;;;;;1.85;84.83;99739.47;10404505;28;20173;-67
2021/01/08 06:06:58;;;;;;;10.25;8.55;;;;;;;1.94;85.59;99746.84;10396360;28;20049;-66
2021/01/08 06:11:59;;;;;;;12.27;9.02;;;;;;;1.83;85.45;99736.06;10373768;28;20065;-66
2021/01/08 06:17:00;;;;;;;13.55;10.00;;;;;;;1.91;85.11;99739.13;10383926;28;20131;-68
2021/01/08 06:22:02;;;;;;;12.05;9.63;;;;;;;2.06;84.67;99743.56;10387211;28;20101;-66
2021/01/08 06:27:03;;;;;;;10.60;8.35;;;;;;;1.99;84.46;99733.47;10381622;28;20136;-69
2021/01/08 06:32:16;;;;;;;10.30;8.20;;;;;;;2.23;84.40;99747.06;10395837;28;20116;-67
2021/01/08 06:37:23;;;;;;;10.52;8.13;;;;;;;2.31;83.92;99750.13;10394760;28;20049;-67
2021/01/08 06:42:29;;;;;;;8.77;7.88;;;;;;;2.35;83.96;99745.56;10394416;28;20042;-67
2021/01/08 06:47:35;;;;;;;8.75;7.68;;;;;;;2.31;83.52;99734.34;10358993;28;20497;-67
2021/01/08 06:52:43;;;;;;;9.52;7.30;;;;;;;2.26;84.02;99736.38;10352729;28;20528;-67
2021/01/08 06:57:55;;;;;;;7.38;6.60;;;;;;;2.39;83.93;99762.84;10376026;28;20588;-66
2021/01/08 07:03:03;;;;;;;7.60;6.35;;;;;;;2.26;83.99;99744.28;10374950;28;20045;-65
2021/01/08 07:08:04;;;;;;;7.75;6.88;;;;;;;2.20;84.45;99771.69;10386661;28;20062;-67
2021/01/08 07:13:06;;;;;;;7.78;6.40;;;;;;;2.18;84.94;99765.69;10387584;28;20206;-68
2021/01/08 07:18:12;;;;;;;9.55;6.88;;;;;;;2.21;85.05;99767.31;10363296;28;20057;-68
2021/01/08 07:23:19;;;;;;;8.60;7.70;;;;;;;2.50;84.56;99773.59;10341356;28;20516;-67
2021/01/08 07:28:21;;;;;;;8.23;6.40;;;;;;;2.57;83.66;99784.66;10372821;28;20045;-66
2021/01/08 07:33:26;;;;;;;6.50;5.90;;;;;;;2.55;83.27;99794.38;10376551;28;20068;-66
2021/01/08 07:38:36;;;;;;;6.28;5.65;;;;;;;2.47;83.93;99806.13;10376407;28;20061;-66
2021/01/08 07:43:37;;;;;;;8.13;7.43;;;;;;;2.56;83.99;99806.59;10375133;28;20455;-66
2021/01/08 07:48:39;;;;;;;7.85;7.00;;;;;;;2.61;84.16;99823.81;10372152;28;20095;-66
2021/01/08 07:53:41;;;;;;;7.75;6.93;;;;;;;2.58;83.70;99831.88;10374028;28;20052;-66
2021/01/08 07:58:44;;;;;;;7.43;6.57;;;;;;;2.59;83.44;99832.69;10374728;28;20057;-67
2021/01/08 08:03:56;;;;;;;6.60;5.70;;;;;;;2.71;83.45;99842.53;10375538;28;20045;-66
2021/01/08 08:09:06;;;;;;;7.18;6.57;;;;;;;2.89;83.26;99850.38;10376705;28;20130;-67
2021/01/08 08:14:16;;;;;;;8.02;6.50;;;;;;;2.88;82.67;99846.03;10361975;28;20036;-67
2021/01/08 08:19:17;;;;;;;11.00;6.90;;;;;;;2.93;81.83;99844.84;10333937;28;20089;-66
2021/01/08 08:24:19;;;;;;;6.93;6.22;;;;;;;2.93;81.46;99842.22;10351824;28;20181;-67
2021/01/08 08:29:26;;;;;;;7.72;6.70;;;;;;;3.10;82.26;99869.34;10330574;28;20046;-66
2021/01/08 08:34:31;;;;;;;10.15;7.75;;;;;;;3.30;81.26;99881.38;10354399;28;20116;-67
2021/01/08 08:39:33;;;;;;;7.50;6.40;;;;;;;3.31;80.84;99877.84;10376256;28;20064;-67
2021/01/08 08:44:42;;;;;;;7.10;6.03;;;;;;;3.34;80.71;99888.19;10381621;28;20049;-68
2021/01/08 08:49:44;;;;;;;7.50;6.80;;;;;;;3.51;80.45;99890.72;10372889;28;20045;-67
2021/01/08 08:54:45;;;;;;;7.47;5.93;;;;;;;3.31;79.46;99856.78;10373116;28;20053;-66
2021/01/08 08:59:47;;;;;;;7.18;6.32;;;;;;;3.50;78.89;99875.00;10369818;28;20601;-65
2021/01/08 09:04:55;;;;;;;12.73;8.07;;;;;;;3.69;79.10;99909.00;10372094;28;20115;-67
2021/01/08 09:10:13;;;;;;;6.70;6.00;;;;;;;3.92;79.18;99912.97;10355841;28;20095;-66
2021/01/08 09:15:24;;;;;;;7.30;5.82;;;;;;;3.83;77.90;99909.06;10342181;28;20098;-65
2021/01/08 09:20:28;;;;;;;6.68;5.95;;;;;;;3.79;77.72;99902.28;10335228;28;20536;-66
2021/01/08 09:25:29;;;;;;;7.63;6.13;;;;;;;3.91;78.27;99916.53;10348420;28;20053;-65
2021/01/08 09:30:31;;;;;;;6.90;5.95;;;;;;;3.99;77.37;99910.81;10369550;28;20065;-65
2021/01/08 09:35:42;;;;;;;7.15;5.88;;;;;;;4.14;77.32;99922.22;10366166;28;20133;-66
2021/01/08 09:40:44;;;;;;;7.72;6.75;;;;;;;3.97;77.65;99945.13;10379942;28;20124;-66
2021/01/08 09:45:45;;;;;;;6.55;5.38;;;;;;;4.06;77.05;99930.59;10381879;28;20115;-66
2021/01/08 09:50:58;;;;;;;5.72;5.22;;;;;;;4.18;76.53;99936.91;10380630;28;20096;-66
2021/01/08 09:56:13;;;;;;;7.28;5.45;;;;;;;4.06;76.50;99943.75;10379783;28;20050;-65
2021/01/08 10:01:15;;;;;;;5.20;4.60;;;;;;;3.76;76.73;99947.22;10376606;28;20041;-66
2021/01/08 10:06:18;;;;;;;5.50;4.32;;;;;;;3.61;76.24;99916.50;10377060;28;20080;-66
2021/01/08 10:11:26;;;;;;;5.00;4.50;;;;;;;3.77;76.80;99927.00;10378890;28;20052;-67
2021/01/08 10:16:36;;;;;;;5.53;4.25;;;;;;;3.97;76.38;99954.81;10385974;28;20048;-66
2021/01/08 10:21:42;;;;;;;6.32;4.32;;;;;;;4.04;75.05;99933.31;10381325;28;20476;-66
2021/01/08 10:26:43;;;;;;;5.03;4.53;;;;;;;4.05;75.33;99942.03;10342861;28;20053;-67
2021/01/08 10:31:45;;;;;;;5.40;4.75;;;;;;;4.01;75.29;99933.50;10377301;28;20144;-68
2021/01/08 10:36:47;;;;;;;5.30;4.80;;;;;;;4.07;75.88;99945.47;10383728;28;20069;-67
2021/01/08 10:41:48;;;;;;;4.70;4.20;;;;;;;4.11;74.98;99944.31;10382039;28;20478;-69
2021/01/08 10:46:50;;;;;;;5.15;4.57;;;;;;;4.32;75.17;99946.63;10401663;28;20198;-68
2021/01/08 10:51:51;;;;;;;6.90;5.00;;;;;;;4.35;74.50;99955.19;10360555;28;20123;-67
2021/01/08 10:56:52;;;;;;;5.00;4.47;;;;;;;4.35;74.99;99928.84;10378377;28;20111;-69
2021/01/08 11:01:53;;;;;;;5.07;4.57;;;;;;;4.45;74.34;99955.50;10380376;28;20049;-69
2021/01/08 11:07:09;;;;;;;4.40;4.00;;;;;;;4.35;74.34;99949.09;10378504;28;20053;-68
2021/01/08 11:12:11;;;;;;;4.32;3.83;;;;;;;4.52;74.52;99948.94;10377468;28;20049;-67
2021/01/08 11:17:12;;;;;;;3.78;3.47;;;;;;;4.70;74.03;99952.25;10381213;28;20119;-65
2021/01/08 11:22:14;;;;;;;4.32;3.88;;;;;;;4.65;72.20;99950.81;10377651;28;20136;-66
2021/01/08 11:27:15;;;;;;;3.85;3.55;;;;;;;4.70;72.88;99946.97;10378682;28;20119;-66
2021/01/08 11:32:16;;;;;;;4.10;3.70;;;;;;;4.72;72.21;99939.81;10378585;28;20124;-65
2021/01/08 11:37:18;;;;;;;4.32;3.92;;;;;;;4.78;70.78;99943.88;10375975;28;20063;-65
2021/01/08 11:42:19;;;;;;;4.43;3.22;;;;;;;4.69;70.21;99936.53;10378063;28;20049;-66
2021/01/08 11:47:20;;;;;;;3.50;3.20;;;;;;;4.79;71.08;99945.56;10375627;28;20064;-66
2021/01/08 11:52:22;;;;;;;4.18;3.78;;;;;;;4.99;71.01;99922.38;10374670;28;20685;-65
2021/01/08 11:57:23;;;;;;;3.55;3.25;;;;;;;4.76;70.29;99951.88;10374885;28;20081;-67
2021/01/08 12:02:24;;;;;;;3.10;2.90;;;;;;;4.81;70.51;99961.28;10391448;22;20151;-60
2021/01/08 12:07:27;;;;;;;3.90;3.08;;;;;;;4.94;69.08;99952.53;10369545;28;20080;-60
2021/01/08 12:12:28;;;;;;;2.65;2.42;;;;;;;4.85;68.06;99957.50;10379967;28;20580;-61
2021/01/08 12:17:29;;;;;;;2.78;2.58;;;;;;;5.38;68.01;99957.75;10385201;28;20053;-61
2021/01/08 12:22:33;;;;;;;3.15;2.85;;;;;;;5.42;66.16;99954.81;10398507;28;20073;-60
2021/01/08 12:27:34;;;;;;;2.75;2.55;;;;;;;5.19;67.07;99955.41;10407152;28;20053;-61
2021/01/08 12:32:36;;;;;;;3.25;2.95;;;;;;;5.15;67.78;99954.78;10390172;28;20045;-61
2021/01/08 12:37:38;;;;;;;2.92;2.72;;;;;;;5.08;67.00;99958.75;10383737;28;20498;-61
2021/01/08 12:42:40;;;;;;;3.40;3.10;;;;;;;5.16;67.80;99960.91;10375479;28;20050;-60
2021/01/08 12:47:42;;;;;;;3.08;2.80;;;;;;;5.23;66.34;99947.22;10383969;28;20056;-62
2021/01/08 12:52:44;;;;;;;2.83;2.45;;;;;;;5.26;66.72;99956.75;10375929;28;20095;-62
2021/01/08 12:57:45;;;;;;;2.97;2.70;;;;;;;5.04;67.13;99955.44;10375671;28;20061;-61
2021/01/08 13:02:48;;;;;;;3.25;2.95;;;;;;;5.12;67.63;99954.97;10376957;28;20053;-60
2021/01/08 13:07:50;;;;;;;2.67;2.40;;;;;;;5.09;67.05;99956.00;10369283;28;20462;-61
2021/01/08 13:12:51;;;;;;;2.50;2.30;;;;;;;5.13;66.34;99962.78;10387101;28;20631;-61
2021/01/08 13:17:53;;;;;;;2.80;2.60;;;;;;;4.92;67.28;99969.38;10380547;28;21735;-61
2021/01/08 13:22:55;;;;;;;3.08;2.78;;;;;;;5.01;68.05;99962.69;10380953;28;20045;-61
2021/01/08 13:27:56;;;;;;;2.30;2.10;;;;;;;5.04;67.67;99970.41;10378313;28;20045;-61
2021/01/08 13:32:59;;;;;;;2.72;2.40;;;;;;;5.00;66.87;99966.25;10381518;28;20103;-62
2021/01/08 13:38:01;;;;;;;2.42;2.22;;;;;;;4.82;68.48;99973.53;10381449;28;20056;-62
2021/01/08 13:43:05;;;;;;;2.42;2.22;;;;;;;4.82;67.44;99979.66;10380454;28;20080;-61
2021/01/08 13:48:09;;;;;;;2.70;2.50;;;;;;;4.60;67.83;99974.84;10380385;28;20779;-61
2021/01/08 13:53:13;;;;;;;2.83;2.15;;;;;;;4.92;67.08;99985.22;10382796;28;20210;-61
2021/01/08 13:58:15;;;;;;;3.70;2.80;;;;;;;5.09;67.70;99981.56;10378374;28;20139;-61
2021/01/08 14:03:18;;;;;;;2.67;2.15;;;;;;;5.10;67.70;99999.06;10387194;28;20049;-61
2021/01/08 14:08:20;;;;;;;3.00;2.78;;;;;;;5.05;67.15;100001.97;10383245;28;20053;-61
2021/01/08 14:13:22;;;;;;;2.35;2.15;;;;;;;4.89;67.44;99999.41;10380749;28;20449;-61
2021/01/08 14:18:23;;;;;;;2.50;2.20;;;;;;;4.91;68.78;100016.03;10396763;28;20087;-61
2021/01/08 14:23:25;;;;;;;4.82;3.97;;;;;;;4.78;67.94;100015.06;10405580;28;20075;-61
2021/01/08 14:28:26;;;;;;;3.03;2.78;;;;;;;4.56;68.93;100021.63;10393742;28;20559;-61
2021/01/08 14:33:27;;;;;;;2.80;2.30;;;;;;;4.69;69.58;100015.63;10382767;28;20127;-61
2021/01/08 14:38:28;;;;;;;3.08;2.75;;;;;;;4.68;68.20;100029.72;10381501;28;20049;-61
2021/01/08 14:43:29;;;;;;;2.17;1.98;;;;;;;4.23;68.43;100025.31;10381442;28;20154;-61
2021/01/08 14:48:31;;;;;;;2.42;2.22;;;;;;;4.25;69.67;100041.03;10379342;28;20477;-60
2021/01/08 14:53:32;;;;;;;2.15;2.05;;;;;;;4.33;69.62;100048.47;10378459;28;20138;-60
2021/01/08 14:58:34;;;;;;;3.45;2.70;;;;;;;4.57;68.92;100051.47;10376799;28;20277;-61
2021/01/08 15:03:35;;;;;;;3.03;2.83;;;;;;;4.27;70.36;100051.47;10379521;28;20050;-60
2021/01/08 15:08:42;;;;;;;4.03;2.90;;;;;;;4.41;69.52;100060.28;10380416;28;20536;-66
2021/01/08 15:13:43;;;;;;;3.33;3.03;;;;;;;4.49;69.32;100059.84;10375475;28;20053;-61
2021/01/08 15:18:44;;;;;;;3.03;2.63;;;;;;;4.45;68.96;100060.94;10384212;28;20057;-61
2021/01/08 15:23:46;;;;;;;2.88;2.67;;;;;;;4.42;69.48;100064.59;10381782;28;20162;-65
2021/01/08 15:28:47;;;;;;;3.95;3.60;;;;;;;4.56;69.45;100074.34;10374425;28;20061;-60
2021/01/08 15:33:49;;;;;;;6.07;5.05;;;;;;;4.41;68.63;100073.47;10372570;28;20239;-62
2021/01/08 15:38:50;;;;;;;3.63;3.13;;;;;;;4.22;69.82;100089.47;10369965;28;20068;-61
2021/01/08 15:43:52;;;;;;;4.03;3.45;;;;;;;4.04;70.52;100082.59;10372983;28;20151;-61
2021/01/08 15:48:54;;;;;;;6.47;3.90;;;;;;;3.97;70.29;100094.41;10377427;28;20556;-60
2021/01/08 15:53:56;;;;;;;13.98;6.75;;;;;;;4.08;70.27;100089.38;10370522;28;20203;-61
2021/01/08 15:58:59;;;;;;;4.70;3.50;;;;;;;4.06;69.79;100105.28;10373660;28;20056;-63
2021/01/08 16:04:02;;;;;;;4.63;3.70;;;;;;;4.17;70.28;100107.31;10367343;28;20445;-62
2021/01/08 16:09:04;;;;;;;4.00;3.60;;;;;;;4.00;69.74;100108.25;10367603;28;20480;-61
2021/01/08 16:14:07;;;;;;;4.00;3.65;;;;;;;4.23;69.42;100122.78;10370205;28;20045;-60
2021/01/08 16:19:08;;;;;;;7.05;4.10;;;;;;;4.41;68.70;100125.31;10375166;28;20810;-60
2021/01/08 16:24:10;;;;;;;4.88;4.10;;;;;;;4.06;69.52;100136.88;10374007;28;20683;-61
2021/01/08 16:29:12;;;;;;;4.32;3.92;;;;;;;3.93;70.23;100133.22;10371422;28;20061;-60
2021/01/08 16:34:14;;;;;;;4.57;4.15;;;;;;;4.21;69.73;100139.63;10370471;28;20041;-60
2021/01/08 16:39:17;;;;;;;4.63;4.22;;;;;;;4.21;69.22;100143.09;10373819;28;20057;-63
2021/01/08 16:44:22;;;;;;;5.60;5.05;;;;;;;4.36;69.85;100156.34;10366002;28;20052;-65
2021/01/08 16:49:25;;;;;;;26.40;8.68;;;;;;;4.40;68.60;100155.25;10373295;28;20064;-60
2021/01/08 16:54:27;;;;;;;8.93;5.43;;;;;;;4.40;69.46;100157.88;10371251;28;20283;-60
2021/01/08 16:59:31;;;;;;;5.13;4.20;;;;;;;4.55;69.21;100151.75;10369743;28;20550;-61
2021/01/08 17:04:38;;;;;;;5.50;5.00;;;;;;;4.49;68.84;100157.38;10372437;28;20519;-60
2021/01/08 17:09:41;;;;;;;5.38;4.55;;;;;;;4.41;69.44;100170.97;10374448;28;20637;-65
2021/01/08 17:14:43;;;;;;;5.90;5.30;;;;;;;4.54;69.39;100180.81;10366565;28;20053;-60
2021/01/08 17:19:45;;;;;;;7.35;5.63;;;;;;;4.45;68.92;100176.91;10358405;28;20083;-60
2021/01/08 17:24:50;;;;;;;5.85;5.35;;;;;;;4.57;68.90;100193.84;10371475;28;20313;-61
2021/01/08 17:29:55;;;;;;;8.10;5.93;;;;;;;4.59;68.23;100190.19;10370637;28;20053;-60
2021/01/08 17:34:58;;;;;;;6.25;5.65;;;;;;;4.59;68.60;100199.84;10375875;28;20208;-61
2021/01/08 17:39:59;;;;;;;6.60;5.90;;;;;;;4.54;68.12;100194.84;10379274;28;20056;-61
2021/01/08 17:45:03;;;;;;;7.18;6.25;;;;;;;4.64;68.78;100207.50;10389499;28;20053;-61
2021/01/08 17:50:07;;;;;;;6.43;5.80;;;;;;;4.63;67.83;100200.56;10380227;28;20063;-61
2021/01/08 17:55:10;;;;;;;6.43;5.82;;;;;;;4.72;68.34;100213.22;10378316;28;20083;-61
2021/01/08 18:00:11;;;;;;;8.23;6.57;;;;;;;4.77;67.63;100209.38;10372426;28;20041;-61
2021/01/08 18:05:13;;;;;;;6.32;5.72;;;;;;;4.73;67.84;100218.41;10404045;22;20087;-66
2021/01/08 18:10:14;;;;;;;7.18;6.28;;;;;;;4.65;67.27;100214.47;10398188;28;20064;-67
2021/01/08 18:15:16;;;;;;;6.85;6.00;;;;;;;4.70;67.74;100222.97;10403393;28;20073;-67
2021/01/08 18:20:17;;;;;;;7.18;5.90;;;;;;;4.60;67.29;100212.94;10401727;28;20573;-66
2021/01/08 18:25:18;;;;;;;7.63;6.82;;;;;;;4.70;66.96;100231.75;10406066;28;20052;-67
2021/01/08 18:30:24;;;;;;;9.02;7.97;;;;;;;4.71;67.33;100240.50;10389580;28;20045;-71
2021/01/08 18:35:25;;;;;;;6.63;5.72;;;;;;;4.66;67.15;100230.22;10397077;28;20126;-66
2021/01/08 18:40:26;;;;;;;5.90;5.25;;;;;;;4.47;67.26;100214.56;10400402;28;20065;-66
2021/01/08 18:45:28;;;;;;;7.13;6.40;;;;;;;4.58;67.69;100248.28;10402800;28;20439;-65
2021/01/08 18:50:29;;;;;;;8.57;6.68;;;;;;;4.43;67.50;100242.06;10398866;28;20089;-67
2021/01/08 18:55:32;;;;;;;7.13;5.68;;;;;;;4.50;66.77;100256.56;10400764;28;20061;-67
2021/01/08 19:00:34;;;;;;;6.15;5.55;;;;;;;4.50;66.94;100264.47;10396352;28;20049;-67
2021/01/08 19:05:35;;;;;;;8.10;6.18;;;;;;;4.58;67.17;100275.47;10404692;28;20053;-65
2021/01/08 19:10:38;;;;;;;7.93;7.13;;;;;;;4.50;66.47;100264.47;10402752;28;20519;-66
2021/01/08 19:15:39;;;;;;;6.65;5.95;;;;;;;4.52;66.95;100273.19;10390608;28;20140;-67
2021/01/08 19:20:40;;;;;;;7.30;6.03;;;;;;;4.32;66.98;100270.78;10394708;28;20092;-67
2021/01/08 19:25:42;;;;;;;8.32;7.07;;;;;;;4.29;67.14;100281.47;10399679;28;20057;-67
2021/01/08 19:30:43;;;;;;;7.15;6.45;;;;;;;4.44;66.34;100272.72;10396790;28;20071;-66
2021/01/08 19:35:55;;;;;;;7.28;6.53;;;;;;;3.97;67.37;100260.34;10390961;28;20574;-66
2021/01/08 19:40:56;;;;;;;9.50;8.07;;;;;;;4.19;67.06;100271.44;10391230;28;20593;-66
2021/01/08 19:45:57;;;;;;;8.57;7.53;;;;;;;4.17;67.17;100282.97;10396181;28;20057;-66
2021/01/08 19:50:59;;;;;;;6.90;5.88;;;;;;;4.34;66.07;100292.63;10398802;28;20149;-68
2021/01/08 19:56:04;;;;;;;7.45;6.18;;;;;;;4.23;66.52;100277.38;10397506;28;20466;-65
2021/01/08 20:01:06;;;;;;;7.63;6.40;;;;;;;4.35;66.95;100291.69;10399578;28;20045;-66
2021/01/08 20:06:07;;;;;;;7.13;6.43;;;;;;;4.22;66.58;100276.53;10397165;28;20053;-67
2021/01/08 20:11:10;;;;;;;7.45;6.57;;;;;;;4.27;66.33;100299.16;10403161;28;20049;-65
2021/01/08 20:16:13;;;;;;;10.40;8.70;;;;;;;4.22;66.50;100302.91;10402741;28;20049;-66
2021/01/08 20:21:14;;;;;;;10.60;8.00;;;;;;;4.33;65.99;100314.66;10396349;28;20042;-67
2021/01/08 20:26:16;;;;;;;8.35;7.22;;;;;;;4.22;66.19;100318.72;10395954;28;20073;-66
2021/01/08 20:31:17;;;;;;;9.60;7.63;;;;;;;4.07;67.02;100308.97;10391745;28;20107;-66
2021/01/08 20:36:19;;;;;;;8.07;7.28;;;;;;;4.11;68.03;100314.94;10391915;28;20056;-67
2021/01/08 20:41:26;;;;;;;10.20;8.40;;;;;;;4.39;67.62;100345.94;10391508;28;20549;-66
2021/01/08 20:46:27;;;;;;;9.02;7.80;;;;;;;4.41;67.10;100344.94;10376149;28;20095;-66
2021/01/08 20:51:34;;;;;;;10.20;7.80;;;;;;;4.45;67.70;100350.03;10369818;28;20054;-66
2021/01/08 20:56:36;;;;;;;9.93;8.68;;;;;;;4.36;66.95;100338.22;10379854;28;20049;-67
2021/01/08 21:01:37;;;;;;;10.57;7.93;;;;;;;4.34;67.57;100333.00;10387992;28;20069;-67
2021/01/08 21:06:39;;;;;;;9.98;8.75;;;;;;;4.32;68.18;100339.28;10383288;28;20072;-66
2021/01/08 21:11:40;;;;;;;12.65;9.35;;;;;;;4.36;68.65;100364.56;10390274;28;20050;-65
2021/01/08 21:16:42;;;;;;;10.23;8.57;;;;;;;4.41;68.58;100359.88;10383222;28;20050;-66
2021/01/08 21:21:45;;;;;;;10.15;8.68;;;;;;;4.33;68.16;100351.53;10381113;28;20053;-66
2021/01/08 21:26:52;;;;;;;12.32;10.02;;;;;;;4.35;67.83;100354.94;10384157;28;20107;-66
2021/01/08 21:31:53;;;;;;;11.93;9.88;;;;;;;4.43;67.92;100373.84;10359500;28;20046;-66
2021/01/08 21:36:54;;;;;;;11.82;9.75;;;;;;;4.19;67.62;100334.69;10388697;28;20067;-67
2021/01/08 21:41:56;;;;;;;15.18;11.82;;;;;;;4.30;67.91;100364.88;10394033;28;20044;-66
2021/01/08 21:46:59;;;;;;;11.77;9.43;;;;;;;4.29;67.69;100374.56;10386887;28;20045;-65
2021/01/08 21:52:01;;;;;;;12.65;9.05;;;;;;;4.47;67.73;100379.81;10391258;28;20045;-65
2021/01/08 21:57:03;;;;;;;10.95;9.13;;;;;;;4.34;67.79;100385.72;10386763;28;20053;-66
2021/01/08 22:02:05;;;;;;;13.45;10.00;;;;;;;4.42;67.39;100382.69;10386775;28;20045;-65
2021/01/08 22:07:07;;;;;;;10.98;8.73;;;;;;;4.53;66.67;100388.22;10378481;28;20060;-65
2021/01/08 22:12:08;;;;;;;10.85;8.23;;;;;;;4.54;66.01;100373.28;10378398;28;20144;-66
2021/01/08 22:17:12;;;;;;;9.98;8.52;;;;;;;4.54;65.90;100370.63;10384266;28;20227;-67
2021/01/08 22:22:14;;;;;;;11.52;8.60;;;;;;;4.57;65.63;100386.28;10385791;28;20111;-65
2021/01/08 22:27:15;;;;;;;9.55;7.60;;;;;;;4.43;66.20;100389.66;10379341;28;20132;-67
2021/01/08 22:32:16;;;;;;;12.05;10.05;;;;;;;4.48;65.83;100392.91;10381668;28;20107;-65
2021/01/08 22:37:18;;;;;;;13.32;10.57;;;;;;;4.42;66.21;100378.25;10379567;28;20045;-65
2021/01/08 22:42:19;;;;;;;9.15;7.85;;;;;;;4.58;65.66;100383.56;10394999;28;20042;-66
2021/01/08 22:47:20;;;;;;;9.13;7.90;;;;;;;4.65;65.19;100384.09;10382514;28;20042;-66
2021/01/08 22:52:22;;;;;;;12.20;9.55;;;;;;;4.54;65.50;100365.38;10388329;28;20123;-66
2021/01/08 22:57:23;;;;;;;11.52;10.00;;;;;;;4.64;65.42;100381.53;10391399;28;20107;-66
2021/01/08 23:02:24;;;;;;;10.60;9.10;;;;;;;4.59;65.93;100385.28;10390923;28;20056;-67
2021/01/08 23:07:26;;;;;;;9.55;7.90;;;;;;;4.41;66.14;100378.34;10388750;28;20053;-67
2021/01/08 23:12:27;;;;;;;10.13;8.30;;;;;;;4.40;66.46;100406.50;10385481;28;20682;-67
2021/01/08 23:17:28;;;;;;;10.88;8.57;;;;;;;4.17;67.01;100389.22;10403114;28;20060;-67
2021/01/08 23:22:29;;;;;;;11.90;10.15;;;;;;;4.38;66.60;100407.50;10385599;28;20111;-65
2021/01/08 23:27:30;;;;;;;13.38;10.68;;;;;;;4.33;66.49;100414.78;10387820;28;20132;-65
2021/01/08 23:32:32;;;;;;;11.75;10.02;;;;;;;4.31;66.44;100416.63;10388073;28;20159;-65